This is the latest recevied weather packets stored in our database for station/object IK0TIX. If no packets are shown the sender has not sent any weather packets the latest 10 day(s).
| Time | Temp. | Humidity | Pressure | Rain* | Wind** | Luminosity | Snow |
|---|---|---|---|---|---|---|---|
| 1777111468 | 22.78° C | 36% | 1017.6 hPa | 0 mm | - | - | - |
| 1777109374 | 21.11° C | 42% | 1017.9 hPa | 0 mm | - | - | - |
| 1777108479 | 20.56° C | 44% | 1018 hPa | 0 mm | - | - | - |
| 1777107912 | 20° C | 45% | 1018 hPa | 0 mm | - | - | - |
| 1777105807 | 18.33° C | 51% | 1018.1 hPa | 0 mm | - | - | - |
| 1777104575 | 17.78° C | 54% | 1018.3 hPa | 0 mm | - | - | - |
| 1777103679 | 17.22° C | 53% | 1018.3 hPa | 0 mm | - | - | - |
| 1777102177 | 16.11° C | 56% | 1018.4 hPa | 0 mm | - | - | - |
| 1777101868 | 16.11° C | 57% | 1018.3 hPa | 0 mm | - | - | - |
| 1777101627 | 15.56° C | 58% | 1018.4 hPa | 0 mm | - | - | - |
| 1777099484 | 13.89° C | 63% | 1018.5 hPa | 0 mm | - | - | - |
| 1777098583 | 13.33° C | 65% | 1018.4 hPa | 0 mm | - | - | - |
| 1777097378 | 12.78° C | 67% | 1018.5 hPa | 0 mm | - | - | - |
| 1777095584 | 12.22° C | 66% | 1018.2 hPa | 0 mm | - | - | - |
| 1777092269 | 11.67° C | 67% | 1017.9 hPa | 0 mm | - | - | - |
| 1777090479 | 11.67° C | 67% | 1017.8 hPa | 0 mm | - | - | - |
| 1777089883 | 12.22° C | 67% | 1017.8 hPa | 0 mm | - | - | - |
| 1777089300 | 12.22° C | 67% | 1017.9 hPa | 0 mm | - | - | - |
| 1777086301 | 12.22° C | 70% | 1017.8 hPa | 0 mm | - | - | - |
| 1777085379 | 12.22° C | 68% | 1017.6 hPa | 0 mm | - | - | - |
| 1777085074 | 12.22° C | 68% | 1017.6 hPa | 0 mm | - | - | - |
| 1777084481 | 12.78° C | 69% | 1017.7 hPa | 0 mm | - | - | - |
| 1777083307 | 12.78° C | 69% | 1017.6 hPa | 0 mm | - | - | - |
| 1777081469 | 13.33° C | 69% | 1017.5 hPa | 0 mm | - | - | - |
| 1777080887 | 13.89° C | 70% | 1017.5 hPa | 0 mm | - | - | - |
* Rain latest hour (hover to see other rain measurements)
** Current wind speed in m/s (hover to see current wind gust speed)